sensor_id;sensor_type;location;lat;lon;timestamp;P1;durP1;ratioP1;P2;durP2;ratioP2
21554;SDS011;10938;44.794;-0.676;2023-02-28T00:00:21;13.57;;;8.68;;
21554;SDS011;10938;44.794;-0.676;2023-02-28T00:02:48;13.10;;;8.13;;
21554;SDS011;10938;44.794;-0.676;2023-02-28T00:05:15;11.80;;;7.18;;
21554;SDS011;10938;44.794;-0.676;2023-02-28T00:07:43;21.63;;;10.80;;
21554;SDS011;10938;44.794;-0.676;2023-02-28T00:10:09;33.63;;;15.40;;
21554;SDS011;10938;44.794;-0.676;2023-02-28T00:12:37;26.90;;;14.23;;
21554;SDS011;10938;44.794;-0.676;2023-02-28T00:15:08;44.22;;;19.77;;
21554;SDS011;10938;44.794;-0.676;2023-02-28T00:17:35;38.75;;;18.55;;
21554;SDS011;10938;44.794;-0.676;2023-02-28T00:20:01;35.40;;;16.25;;
21554;SDS011;10938;44.794;-0.676;2023-02-28T00:22:29;34.53;;;16.88;;
21554;SDS011;10938;44.794;-0.676;2023-02-28T00:24:55;36.83;;;17.25;;
21554;SDS011;10938;44.794;-0.676;2023-02-28T00:27:21;28.63;;;14.68;;
21554;SDS011;10938;44.794;-0.676;2023-02-28T00:29:47;27.98;;;14.18;;
21554;SDS011;10938;44.794;-0.676;2023-02-28T00:32:13;34.88;;;16.42;;
21554;SDS011;10938;44.794;-0.676;2023-02-28T00:34:38;26.15;;;13.63;;
21554;SDS011;10938;44.794;-0.676;2023-02-28T00:37:05;22.15;;;12.10;;
21554;SDS011;10938;44.794;-0.676;2023-02-28T00:39:33;24.95;;;13.18;;
21554;SDS011;10938;44.794;-0.676;2023-02-28T00:42:02;23.67;;;11.98;;
21554;SDS011;10938;44.794;-0.676;2023-02-28T00:44:28;18.92;;;9.82;;
21554;SDS011;10938;44.794;-0.676;2023-02-28T00:46:54;17.73;;;9.48;;
21554;SDS011;10938;44.794;-0.676;2023-02-28T00:49:20;15.20;;;8.75;;
21554;SDS011;10938;44.794;-0.676;2023-02-28T00:51:46;18.38;;;9.88;;
21554;SDS011;10938;44.794;-0.676;2023-02-28T00:54:11;13.38;;;7.75;;
21554;SDS011;10938;44.794;-0.676;2023-02-28T00:56:37;11.95;;;7.28;;
21554;SDS011;10938;44.794;-0.676;2023-02-28T00:59:03;10.05;;;6.70;;
21554;SDS011;10938;44.794;-0.676;2023-02-28T01:01:28;10.20;;;6.15;;
21554;SDS011;10938;44.794;-0.676;2023-02-28T01:03:54;11.70;;;6.30;;
21554;SDS011;10938;44.794;-0.676;2023-02-28T01:06:19;14.18;;;7.97;;
21554;SDS011;10938;44.794;-0.676;2023-02-28T01:08:44;13.00;;;7.55;;
21554;SDS011;10938;44.794;-0.676;2023-02-28T01:11:11;10.60;;;6.68;;
21554;SDS011;10938;44.794;-0.676;2023-02-28T01:13:37;15.23;;;9.07;;
21554;SDS011;10938;44.794;-0.676;2023-02-28T01:16:03;11.93;;;7.88;;
21554;SDS011;10938;44.794;-0.676;2023-02-28T01:18:29;12.23;;;7.50;;
21554;SDS011;10938;44.794;-0.676;2023-02-28T01:20:55;13.25;;;7.63;;
21554;SDS011;10938;44.794;-0.676;2023-02-28T01:23:21;19.80;;;13.27;;
21554;SDS011;10938;44.794;-0.676;2023-02-28T01:25:49;17.58;;;11.75;;
21554;SDS011;10938;44.794;-0.676;2023-02-28T01:28:17;15.27;;;10.43;;
21554;SDS011;10938;44.794;-0.676;2023-02-28T01:30:46;14.10;;;10.23;;
21554;SDS011;10938;44.794;-0.676;2023-02-28T01:33:13;13.90;;;9.32;;
21554;SDS011;10938;44.794;-0.676;2023-02-28T01:35:38;13.18;;;9.63;;
21554;SDS011;10938;44.794;-0.676;2023-02-28T01:38:03;12.55;;;8.23;;
21554;SDS011;10938;44.794;-0.676;2023-02-28T01:40:29;13.18;;;8.27;;
21554;SDS011;10938;44.794;-0.676;2023-02-28T01:42:54;11.65;;;7.65;;
21554;SDS011;10938;44.794;-0.676;2023-02-28T01:47:52;12.18;;;7.80;;
21554;SDS011;10938;44.794;-0.676;2023-02-28T01:50:31;13.65;;;6.68;;
21554;SDS011;10938;44.794;-0.676;2023-02-28T01:53:04;11.25;;;6.93;;
21554;SDS011;10938;44.794;-0.676;2023-02-28T01:55:31;10.60;;;6.40;;
21554;SDS011;10938;44.794;-0.676;2023-02-28T01:57:59;10.23;;;6.18;;
21554;SDS011;10938;44.794;-0.676;2023-02-28T02:00:27;9.88;;;6.00;;
21554;SDS011;10938;44.794;-0.676;2023-02-28T02:03:05;9.82;;;6.35;;
21554;SDS011;10938;44.794;-0.676;2023-02-28T02:05:34;9.70;;;6.38;;
21554;SDS011;10938;44.794;-0.676;2023-02-28T02:08:04;9.55;;;6.07;;
21554;SDS011;10938;44.794;-0.676;2023-02-28T02:29:43;8.65;;;5.20;;
21554;SDS011;10938;44.794;-0.676;2023-02-28T02:40:43;8.18;;;4.70;;
21554;SDS011;10938;44.794;-0.676;2023-02-28T02:43:19;8.02;;;4.75;;
21554;SDS011;10938;44.794;-0.676;2023-02-28T02:45:55;7.40;;;4.45;;
21554;SDS011;10938;44.794;-0.676;2023-02-28T02:48:30;7.25;;;4.38;;
21554;SDS011;10938;44.794;-0.676;2023-02-28T02:51:00;6.38;;;3.85;;
21554;SDS011;10938;44.794;-0.676;2023-02-28T02:53:40;5.43;;;3.72;;
21554;SDS011;10938;44.794;-0.676;2023-02-28T02:56:10;5.70;;;3.80;;
21554;SDS011;10938;44.794;-0.676;2023-02-28T02:58:38;8.40;;;4.10;;
21554;SDS011;10938;44.794;-0.676;2023-02-28T03:01:07;5.00;;;3.70;;
21554;SDS011;10938;44.794;-0.676;2023-02-28T03:03:43;4.68;;;3.45;;
21554;SDS011;10938;44.794;-0.676;2023-02-28T03:06:10;5.82;;;4.22;;
21554;SDS011;10938;44.794;-0.676;2023-02-28T03:08:39;5.32;;;3.65;;
21554;SDS011;10938;44.794;-0.676;2023-02-28T03:11:06;4.50;;;3.17;;
21554;SDS011;10938;44.794;-0.676;2023-02-28T03:13:42;5.45;;;3.65;;
21554;SDS011;10938;44.794;-0.676;2023-02-28T03:16:31;6.38;;;3.50;;
21554;SDS011;10938;44.794;-0.676;2023-02-28T03:19:08;8.65;;;3.50;;
21554;SDS011;10938;44.794;-0.676;2023-02-28T03:24:15;6.72;;;3.97;;
21554;SDS011;10938;44.794;-0.676;2023-02-28T03:27:05;6.15;;;3.67;;
21554;SDS011;10938;44.794;-0.676;2023-02-28T03:29:39;6.18;;;3.50;;
21554;SDS011;10938;44.794;-0.676;2023-02-28T03:32:29;7.18;;;3.63;;
21554;SDS011;10938;44.794;-0.676;2023-02-28T03:35:09;6.35;;;3.78;;
21554;SDS011;10938;44.794;-0.676;2023-02-28T03:37:47;5.68;;;3.30;;
21554;SDS011;10938;44.794;-0.676;2023-02-28T03:40:34;5.00;;;3.50;;
21554;SDS011;10938;44.794;-0.676;2023-02-28T03:43:04;7.13;;;3.10;;
21554;SDS011;10938;44.794;-0.676;2023-02-28T03:45:38;6.13;;;3.33;;
21554;SDS011;10938;44.794;-0.676;2023-02-28T03:48:12;7.35;;;3.83;;
21554;SDS011;10938;44.794;-0.676;2023-02-28T03:50:47;4.38;;;2.92;;
21554;SDS011;10938;44.794;-0.676;2023-02-28T03:53:33;5.25;;;3.40;;
21554;SDS011;10938;44.794;-0.676;2023-02-28T03:56:05;8.57;;;3.35;;
21554;SDS011;10938;44.794;-0.676;2023-02-28T03:58:43;4.88;;;3.22;;
21554;SDS011;10938;44.794;-0.676;2023-02-28T04:01:21;6.03;;;3.60;;
21554;SDS011;10938;44.794;-0.676;2023-02-28T04:03:52;4.63;;;3.53;;
21554;SDS011;10938;44.794;-0.676;2023-02-28T04:06:18;4.85;;;2.90;;
21554;SDS011;10938;44.794;-0.676;2023-02-28T04:08:46;5.93;;;3.00;;
21554;SDS011;10938;44.794;-0.676;2023-02-28T04:13:45;4.80;;;3.15;;
21554;SDS011;10938;44.794;-0.676;2023-02-28T04:16:11;4.38;;;2.88;;
21554;SDS011;10938;44.794;-0.676;2023-02-28T04:18:39;5.07;;;2.92;;
21554;SDS011;10938;44.794;-0.676;2023-02-28T04:21:05;4.97;;;2.58;;
21554;SDS011;10938;44.794;-0.676;2023-02-28T04:23:32;4.57;;;2.92;;
21554;SDS011;10938;44.794;-0.676;2023-02-28T04:25:58;3.67;;;2.83;;
21554;SDS011;10938;44.794;-0.676;2023-02-28T04:28:23;5.53;;;2.70;;
21554;SDS011;10938;44.794;-0.676;2023-02-28T04:30:56;4.32;;;2.90;;
21554;SDS011;10938;44.794;-0.676;2023-02-28T04:33:23;4.55;;;2.85;;
21554;SDS011;10938;44.794;-0.676;2023-02-28T04:35:57;4.95;;;3.08;;
21554;SDS011;10938;44.794;-0.676;2023-02-28T04:38:27;5.80;;;2.80;;
21554;SDS011;10938;44.794;-0.676;2023-02-28T04:40:56;3.88;;;2.70;;
21554;SDS011;10938;44.794;-0.676;2023-02-28T04:43:22;4.25;;;2.78;;
21554;SDS011;10938;44.794;-0.676;2023-02-28T04:45:47;3.65;;;2.70;;
21554;SDS011;10938;44.794;-0.676;2023-02-28T04:48:13;4.65;;;2.70;;
21554;SDS011;10938;44.794;-0.676;2023-02-28T04:50:39;4.95;;;2.72;;
21554;SDS011;10938;44.794;-0.676;2023-02-28T04:53:04;5.53;;;2.90;;
21554;SDS011;10938;44.794;-0.676;2023-02-28T04:55:30;5.70;;;2.95;;
21554;SDS011;10938;44.794;-0.676;2023-02-28T04:57:55;6.43;;;2.80;;
21554;SDS011;10938;44.794;-0.676;2023-02-28T05:00:21;5.07;;;3.38;;
21554;SDS011;10938;44.794;-0.676;2023-02-28T05:02:46;10.55;;;3.10;;
21554;SDS011;10938;44.794;-0.676;2023-02-28T05:05:12;6.75;;;3.03;;
21554;SDS011;10938;44.794;-0.676;2023-02-28T05:07:43;5.50;;;2.78;;
21554;SDS011;10938;44.794;-0.676;2023-02-28T05:10:10;3.67;;;2.70;;
21554;SDS011;10938;44.794;-0.676;2023-02-28T05:12:36;6.28;;;3.00;;
21554;SDS011;10938;44.794;-0.676;2023-02-28T05:15:03;4.25;;;2.92;;
21554;SDS011;10938;44.794;-0.676;2023-02-28T05:17:30;4.32;;;2.83;;
21554;SDS011;10938;44.794;-0.676;2023-02-28T05:19:55;4.10;;;2.67;;
21554;SDS011;10938;44.794;-0.676;2023-02-28T05:22:24;4.28;;;2.35;;
21554;SDS011;10938;44.794;-0.676;2023-02-28T05:24:49;4.93;;;2.45;;
21554;SDS011;10938;44.794;-0.676;2023-02-28T05:27:15;6.32;;;3.03;;
21554;SDS011;10938;44.794;-0.676;2023-02-28T05:29:43;5.18;;;2.55;;
21554;SDS011;10938;44.794;-0.676;2023-02-28T05:32:09;6.13;;;2.67;;
21554;SDS011;10938;44.794;-0.676;2023-02-28T05:34:36;5.22;;;2.75;;
21554;SDS011;10938;44.794;-0.676;2023-02-28T05:37:05;6.18;;;2.42;;
21554;SDS011;10938;44.794;-0.676;2023-02-28T05:39:35;4.43;;;2.88;;
21554;SDS011;10938;44.794;-0.676;2023-02-28T05:42:01;4.30;;;2.58;;
21554;SDS011;10938;44.794;-0.676;2023-02-28T05:44:32;5.72;;;2.65;;
21554;SDS011;10938;44.794;-0.676;2023-02-28T05:46:58;4.45;;;2.90;;
21554;SDS011;10938;44.794;-0.676;2023-02-28T05:49:24;5.32;;;2.97;;
21554;SDS011;10938;44.794;-0.676;2023-02-28T05:51:49;4.85;;;2.80;;
21554;SDS011;10938;44.794;-0.676;2023-02-28T05:54:15;8.75;;;2.58;;
21554;SDS011;10938;44.794;-0.676;2023-02-28T05:56:41;4.72;;;2.80;;
21554;SDS011;10938;44.794;-0.676;2023-02-28T05:59:09;3.65;;;2.50;;
21554;SDS011;10938;44.794;-0.676;2023-02-28T06:01:36;4.60;;;2.80;;
21554;SDS011;10938;44.794;-0.676;2023-02-28T06:04:05;3.78;;;3.10;;
21554;SDS011;10938;44.794;-0.676;2023-02-28T06:06:32;3.97;;;2.97;;
21554;SDS011;10938;44.794;-0.676;2023-02-28T06:09:02;6.80;;;3.45;;
21554;SDS011;10938;44.794;-0.676;2023-02-28T06:11:29;8.98;;;3.28;;
21554;SDS011;10938;44.794;-0.676;2023-02-28T06:13:55;6.45;;;3.78;;
21554;SDS011;10938;44.794;-0.676;2023-02-28T06:16:22;8.70;;;3.78;;
21554;SDS011;10938;44.794;-0.676;2023-02-28T06:18:49;4.60;;;3.30;;
21554;SDS011;10938;44.794;-0.676;2023-02-28T06:21:14;6.63;;;3.50;;
21554;SDS011;10938;44.794;-0.676;2023-02-28T06:23:43;6.70;;;3.97;;
21554;SDS011;10938;44.794;-0.676;2023-02-28T06:26:09;6.07;;;3.97;;
21554;SDS011;10938;44.794;-0.676;2023-02-28T06:28:34;8.15;;;4.20;;
21554;SDS011;10938;44.794;-0.676;2023-02-28T06:31:04;7.10;;;3.97;;
21554;SDS011;10938;44.794;-0.676;2023-02-28T06:33:41;5.85;;;3.40;;
21554;SDS011;10938;44.794;-0.676;2023-02-28T06:36:08;8.05;;;3.80;;
21554;SDS011;10938;44.794;-0.676;2023-02-28T06:38:37;7.10;;;3.85;;
21554;SDS011;10938;44.794;-0.676;2023-02-28T06:41:04;11.35;;;4.55;;
21554;SDS011;10938;44.794;-0.676;2023-02-28T06:43:33;10.18;;;4.57;;
21554;SDS011;10938;44.794;-0.676;2023-02-28T06:46:01;7.63;;;4.40;;
21554;SDS011;10938;44.794;-0.676;2023-02-28T06:48:29;7.22;;;4.30;;
21554;SDS011;10938;44.794;-0.676;2023-02-28T06:53:41;10.25;;;4.07;;
21554;SDS011;10938;44.794;-0.676;2023-02-28T06:56:11;7.05;;;4.00;;
21554;SDS011;10938;44.794;-0.676;2023-02-28T06:58:38;8.05;;;4.28;;
21554;SDS011;10938;44.794;-0.676;2023-02-28T07:01:04;6.63;;;3.97;;
21554;SDS011;10938;44.794;-0.676;2023-02-28T07:03:31;5.60;;;3.45;;
21554;SDS011;10938;44.794;-0.676;2023-02-28T07:05:57;5.55;;;3.40;;
21554;SDS011;10938;44.794;-0.676;2023-02-28T07:08:23;5.80;;;3.30;;
21554;SDS011;10938;44.794;-0.676;2023-02-28T07:10:53;6.97;;;3.53;;
21554;SDS011;10938;44.794;-0.676;2023-02-28T07:13:22;5.88;;;3.65;;
21554;SDS011;10938;44.794;-0.676;2023-02-28T07:15:58;6.80;;;3.63;;
21554;SDS011;10938;44.794;-0.676;2023-02-28T07:18:25;7.45;;;4.20;;
21554;SDS011;10938;44.794;-0.676;2023-02-28T07:20:52;7.70;;;4.30;;
21554;SDS011;10938;44.794;-0.676;2023-02-28T07:23:17;5.18;;;3.55;;
21554;SDS011;10938;44.794;-0.676;2023-02-28T07:25:43;7.55;;;4.10;;
21554;SDS011;10938;44.794;-0.676;2023-02-28T07:28:10;5.45;;;3.85;;
21554;SDS011;10938;44.794;-0.676;2023-02-28T07:30:36;5.80;;;3.83;;
21554;SDS011;10938;44.794;-0.676;2023-02-28T07:33:01;7.10;;;3.55;;
21554;SDS011;10938;44.794;-0.676;2023-02-28T07:35:27;6.28;;;3.25;;
21554;SDS011;10938;44.794;-0.676;2023-02-28T07:37:52;7.07;;;3.50;;
21554;SDS011;10938;44.794;-0.676;2023-02-28T07:40:18;7.75;;;3.58;;
21554;SDS011;10938;44.794;-0.676;2023-02-28T07:42:43;5.47;;;3.40;;
21554;SDS011;10938;44.794;-0.676;2023-02-28T07:45:10;5.38;;;3.67;;
21554;SDS011;10938;44.794;-0.676;2023-02-28T07:47:37;4.47;;;3.22;;
21554;SDS011;10938;44.794;-0.676;2023-02-28T07:50:07;7.22;;;3.35;;
21554;SDS011;10938;44.794;-0.676;2023-02-28T07:52:38;7.05;;;3.30;;
21554;SDS011;10938;44.794;-0.676;2023-02-28T07:55:05;3.70;;;3.10;;
21554;SDS011;10938;44.794;-0.676;2023-02-28T07:57:32;5.35;;;3.92;;
21554;SDS011;10938;44.794;-0.676;2023-02-28T07:59:57;5.38;;;3.72;;
21554;SDS011;10938;44.794;-0.676;2023-02-28T08:02:23;5.75;;;3.38;;
21554;SDS011;10938;44.794;-0.676;2023-02-28T08:04:49;6.13;;;3.75;;
21554;SDS011;10938;44.794;-0.676;2023-02-28T08:07:15;4.85;;;3.30;;
21554;SDS011;10938;44.794;-0.676;2023-02-28T08:09:42;5.55;;;3.67;;
21554;SDS011;10938;44.794;-0.676;2023-02-28T08:12:08;4.90;;;3.80;;
21554;SDS011;10938;44.794;-0.676;2023-02-28T08:14:34;6.03;;;3.40;;
21554;SDS011;10938;44.794;-0.676;2023-02-28T08:17:00;7.82;;;4.65;;
21554;SDS011;10938;44.794;-0.676;2023-02-28T08:19:26;5.07;;;3.90;;
21554;SDS011;10938;44.794;-0.676;2023-02-28T08:21:51;8.80;;;3.72;;
21554;SDS011;10938;44.794;-0.676;2023-02-28T08:24:20;6.38;;;3.83;;
21554;SDS011;10938;44.794;-0.676;2023-02-28T08:26:45;7.00;;;3.92;;
21554;SDS011;10938;44.794;-0.676;2023-02-28T08:29:11;7.07;;;3.75;;
21554;SDS011;10938;44.794;-0.676;2023-02-28T08:31:36;5.07;;;3.67;;
21554;SDS011;10938;44.794;-0.676;2023-02-28T08:34:08;6.97;;;4.47;;
21554;SDS011;10938;44.794;-0.676;2023-02-28T08:36:38;4.60;;;3.70;;
21554;SDS011;10938;44.794;-0.676;2023-02-28T08:39:05;7.38;;;4.18;;
21554;SDS011;10938;44.794;-0.676;2023-02-28T08:41:31;6.47;;;4.10;;
21554;SDS011;10938;44.794;-0.676;2023-02-28T08:43:57;4.32;;;3.80;;
21554;SDS011;10938;44.794;-0.676;2023-02-28T08:46:22;6.45;;;4.13;;
21554;SDS011;10938;44.794;-0.676;2023-02-28T08:48:51;7.60;;;4.47;;
21554;SDS011;10938;44.794;-0.676;2023-02-28T08:51:18;8.75;;;4.00;;
21554;SDS011;10938;44.794;-0.676;2023-02-28T08:53:47;6.68;;;3.63;;
21554;SDS011;10938;44.794;-0.676;2023-02-28T08:56:14;5.97;;;3.90;;
21554;SDS011;10938;44.794;-0.676;2023-02-28T08:58:42;4.88;;;3.50;;
21554;SDS011;10938;44.794;-0.676;2023-02-28T09:01:10;7.13;;;3.95;;
21554;SDS011;10938;44.794;-0.676;2023-02-28T09:03:38;4.60;;;3.63;;
21554;SDS011;10938;44.794;-0.676;2023-02-28T09:06:04;4.90;;;3.45;;
21554;SDS011;10938;44.794;-0.676;2023-02-28T09:08:30;5.28;;;3.83;;
21554;SDS011;10938;44.794;-0.676;2023-02-28T09:10:56;9.82;;;4.32;;
21554;SDS011;10938;44.794;-0.676;2023-02-28T09:13:26;5.22;;;3.45;;
21554;SDS011;10938;44.794;-0.676;2023-02-28T09:15:52;5.70;;;3.90;;
21554;SDS011;10938;44.794;-0.676;2023-02-28T09:18:19;7.32;;;4.00;;
21554;SDS011;10938;44.794;-0.676;2023-02-28T09:20:44;5.72;;;3.92;;
21554;SDS011;10938;44.794;-0.676;2023-02-28T09:23:11;6.40;;;3.88;;
21554;SDS011;10938;44.794;-0.676;2023-02-28T09:25:37;7.60;;;3.70;;
21554;SDS011;10938;44.794;-0.676;2023-02-28T09:28:10;8.05;;;3.50;;
21554;SDS011;10938;44.794;-0.676;2023-02-28T09:30:36;6.03;;;3.47;;
21554;SDS011;10938;44.794;-0.676;2023-02-28T09:33:02;7.47;;;4.30;;
21554;SDS011;10938;44.794;-0.676;2023-02-28T09:35:28;5.07;;;3.80;;
21554;SDS011;10938;44.794;-0.676;2023-02-28T09:37:55;5.03;;;3.80;;
21554;SDS011;10938;44.794;-0.676;2023-02-28T09:40:22;6.68;;;3.80;;
21554;SDS011;10938;44.794;-0.676;2023-02-28T09:42:49;7.20;;;4.03;;
21554;SDS011;10938;44.794;-0.676;2023-02-28T09:48:02;6.53;;;3.78;;
21554;SDS011;10938;44.794;-0.676;2023-02-28T09:56:09;5.45;;;4.00;;
21554;SDS011;10938;44.794;-0.676;2023-02-28T10:01:19;7.70;;;4.03;;
21554;SDS011;10938;44.794;-0.676;2023-02-28T10:04:33;5.65;;;4.20;;
21554;SDS011;10938;44.794;-0.676;2023-02-28T10:06:40;5.70;;;3.83;;
21554;SDS011;10938;44.794;-0.676;2023-02-28T10:11:43;5.68;;;3.50;;
21554;SDS011;10938;44.794;-0.676;2023-02-28T10:14:12;4.65;;;3.50;;
21554;SDS011;10938;44.794;-0.676;2023-02-28T10:16:43;5.93;;;3.40;;
21554;SDS011;10938;44.794;-0.676;2023-02-28T10:19:22;4.28;;;3.03;;
21554;SDS011;10938;44.794;-0.676;2023-02-28T10:22:32;5.45;;;3.78;;
21554;SDS011;10938;44.794;-0.676;2023-02-28T10:25:05;6.70;;;4.15;;
21554;SDS011;10938;44.794;-0.676;2023-02-28T10:27:42;6.88;;;3.35;;
21554;SDS011;10938;44.794;-0.676;2023-02-28T10:30:09;6.30;;;3.83;;
21554;SDS011;10938;44.794;-0.676;2023-02-28T10:32:38;7.03;;;4.25;;
21554;SDS011;10938;44.794;-0.676;2023-02-28T10:35:18;5.88;;;4.10;;
21554;SDS011;10938;44.794;-0.676;2023-02-28T10:37:48;7.43;;;3.97;;
21554;SDS011;10938;44.794;-0.676;2023-02-28T10:45:33;8.30;;;3.38;;
21554;SDS011;10938;44.794;-0.676;2023-02-28T10:55:57;4.60;;;3.67;;
21554;SDS011;10938;44.794;-0.676;2023-02-28T10:58:24;5.68;;;4.10;;
21554;SDS011;10938;44.794;-0.676;2023-02-28T11:00:52;5.40;;;3.58;;
21554;SDS011;10938;44.794;-0.676;2023-02-28T11:03:25;5.97;;;3.42;;
21554;SDS011;10938;44.794;-0.676;2023-02-28T11:05:55;5.45;;;3.95;;
21554;SDS011;10938;44.794;-0.676;2023-02-28T11:08:21;5.18;;;3.95;;
21554;SDS011;10938;44.794;-0.676;2023-02-28T11:10:54;3.45;;;2.78;;
21554;SDS011;10938;44.794;-0.676;2023-02-28T11:13:25;6.07;;;3.42;;
21554;SDS011;10938;44.794;-0.676;2023-02-28T11:15:55;6.20;;;3.63;;
21554;SDS011;10938;44.794;-0.676;2023-02-28T11:18:29;7.68;;;3.78;;
21554;SDS011;10938;44.794;-0.676;2023-02-28T11:20:59;5.05;;;3.97;;
21554;SDS011;10938;44.794;-0.676;2023-02-28T11:23:27;6.03;;;3.63;;
21554;SDS011;10938;44.794;-0.676;2023-02-28T11:25:57;4.03;;;3.60;;
21554;SDS011;10938;44.794;-0.676;2023-02-28T11:28:35;5.95;;;3.35;;
21554;SDS011;10938;44.794;-0.676;2023-02-28T11:31:09;4.78;;;3.45;;
21554;SDS011;10938;44.794;-0.676;2023-02-28T11:33:51;7.63;;;3.40;;
21554;SDS011;10938;44.794;-0.676;2023-02-28T11:36:26;6.95;;;3.58;;
21554;SDS011;10938;44.794;-0.676;2023-02-28T11:38:54;4.97;;;3.40;;
21554;SDS011;10938;44.794;-0.676;2023-02-28T11:56:20;4.80;;;3.70;;
21554;SDS011;10938;44.794;-0.676;2023-02-28T12:07:11;5.50;;;3.47;;
21554;SDS011;10938;44.794;-0.676;2023-02-28T12:20:38;5.32;;;3.58;;
21554;SDS011;10938;44.794;-0.676;2023-02-28T12:26:14;5.53;;;3.85;;
21554;SDS011;10938;44.794;-0.676;2023-02-28T12:28:52;4.15;;;3.30;;
21554;SDS011;10938;44.794;-0.676;2023-02-28T12:31:24;4.68;;;3.65;;
21554;SDS011;10938;44.794;-0.676;2023-02-28T12:33:56;4.85;;;3.65;;
21554;SDS011;10938;44.794;-0.676;2023-02-28T12:36:27;5.68;;;3.58;;
21554;SDS011;10938;44.794;-0.676;2023-02-28T12:38:55;5.72;;;3.80;;
21554;SDS011;10938;44.794;-0.676;2023-02-28T12:44:37;4.93;;;3.60;;
21554;SDS011;10938;44.794;-0.676;2023-02-28T12:47:18;4.75;;;3.28;;
21554;SDS011;10938;44.794;-0.676;2023-02-28T12:52:23;3.83;;;3.28;;
21554;SDS011;10938;44.794;-0.676;2023-02-28T12:54:56;4.57;;;3.40;;
21554;SDS011;10938;44.794;-0.676;2023-02-28T13:00:14;4.05;;;3.50;;
21554;SDS011;10938;44.794;-0.676;2023-02-28T13:10:53;4.35;;;3.45;;
21554;SDS011;10938;44.794;-0.676;2023-02-28T13:13:23;5.00;;;3.58;;
21554;SDS011;10938;44.794;-0.676;2023-02-28T13:16:03;3.95;;;3.25;;
21554;SDS011;10938;44.794;-0.676;2023-02-28T13:21:07;4.72;;;3.42;;
21554;SDS011;10938;44.794;-0.676;2023-02-28T13:27:10;4.53;;;3.50;;
21554;SDS011;10938;44.794;-0.676;2023-02-28T13:32:43;4.28;;;3.72;;
21554;SDS011;10938;44.794;-0.676;2023-02-28T13:39:54;5.47;;;3.58;;
21554;SDS011;10938;44.794;-0.676;2023-02-28T14:06:15;4.40;;;2.92;;
21554;SDS011;10938;44.794;-0.676;2023-02-28T14:09:24;5.47;;;3.80;;
21554;SDS011;10938;44.794;-0.676;2023-02-28T14:11:53;5.65;;;3.45;;
21554;SDS011;10938;44.794;-0.676;2023-02-28T14:14:54;6.15;;;3.33;;
21554;SDS011;10938;44.794;-0.676;2023-02-28T14:17:14;3.65;;;3.10;;
21554;SDS011;10938;44.794;-0.676;2023-02-28T14:19:45;4.55;;;3.30;;
21554;SDS011;10938;44.794;-0.676;2023-02-28T14:25:30;4.18;;;3.45;;
21554;SDS011;10938;44.794;-0.676;2023-02-28T14:36:37;4.28;;;3.35;;
21554;SDS011;10938;44.794;-0.676;2023-02-28T14:39:06;3.67;;;2.92;;
21554;SDS011;10938;44.794;-0.676;2023-02-28T14:41:39;6.03;;;3.22;;
21554;SDS011;10938;44.794;-0.676;2023-02-28T14:46:39;3.95;;;3.30;;
21554;SDS011;10938;44.794;-0.676;2023-02-28T14:49:12;5.85;;;3.00;;
21554;SDS011;10938;44.794;-0.676;2023-02-28T14:51:47;5.38;;;3.35;;
21554;SDS011;10938;44.794;-0.676;2023-02-28T14:54:15;4.47;;;3.30;;
21554;SDS011;10938;44.794;-0.676;2023-02-28T14:56:48;3.95;;;2.83;;
21554;SDS011;10938;44.794;-0.676;2023-02-28T14:59:23;3.58;;;3.05;;
21554;SDS011;10938;44.794;-0.676;2023-02-28T15:01:51;4.43;;;3.42;;
21554;SDS011;10938;44.794;-0.676;2023-02-28T15:04:25;3.63;;;2.85;;
21554;SDS011;10938;44.794;-0.676;2023-02-28T15:09:40;4.13;;;3.28;;
21554;SDS011;10938;44.794;-0.676;2023-02-28T15:12:12;4.00;;;3.13;;
21554;SDS011;10938;44.794;-0.676;2023-02-28T15:14:42;4.63;;;3.45;;
21554;SDS011;10938;44.794;-0.676;2023-02-28T15:17:22;4.10;;;3.08;;
21554;SDS011;10938;44.794;-0.676;2023-02-28T15:19:50;7.70;;;2.90;;
21554;SDS011;10938;44.794;-0.676;2023-02-28T15:22:19;4.55;;;3.45;;
21554;SDS011;10938;44.794;-0.676;2023-02-28T15:24:53;4.38;;;3.15;;
21554;SDS011;10938;44.794;-0.676;2023-02-28T15:27:27;4.40;;;2.92;;
21554;SDS011;10938;44.794;-0.676;2023-02-28T15:29:57;5.38;;;3.13;;
21554;SDS011;10938;44.794;-0.676;2023-02-28T15:32:36;4.43;;;3.08;;
21554;SDS011;10938;44.794;-0.676;2023-02-28T15:35:18;4.20;;;3.10;;
21554;SDS011;10938;44.794;-0.676;2023-02-28T15:37:54;3.83;;;3.17;;
21554;SDS011;10938;44.794;-0.676;2023-02-28T15:40:41;4.43;;;3.33;;
21554;SDS011;10938;44.794;-0.676;2023-02-28T15:43:13;5.43;;;3.30;;
21554;SDS011;10938;44.794;-0.676;2023-02-28T15:48:36;4.78;;;3.00;;
21554;SDS011;10938;44.794;-0.676;2023-02-28T15:53:56;5.88;;;3.25;;
21554;SDS011;10938;44.794;-0.676;2023-02-28T15:56:25;4.05;;;3.03;;
21554;SDS011;10938;44.794;-0.676;2023-02-28T15:58:53;3.78;;;2.67;;
21554;SDS011;10938;44.794;-0.676;2023-02-28T16:01:28;8.10;;;3.40;;
21554;SDS011;10938;44.794;-0.676;2023-02-28T16:03:57;5.28;;;3.55;;
21554;SDS011;10938;44.794;-0.676;2023-02-28T16:08:51;3.45;;;3.05;;
21554;SDS011;10938;44.794;-0.676;2023-02-28T16:11:18;2.72;;;2.53;;
21554;SDS011;10938;44.794;-0.676;2023-02-28T16:13:45;6.13;;;3.42;;
21554;SDS011;10938;44.794;-0.676;2023-02-28T16:16:15;4.70;;;3.58;;
21554;SDS011;10938;44.794;-0.676;2023-02-28T16:18:45;4.55;;;3.35;;
21554;SDS011;10938;44.794;-0.676;2023-02-28T16:21:11;4.68;;;3.20;;
21554;SDS011;10938;44.794;-0.676;2023-02-28T16:23:36;5.00;;;3.38;;
21554;SDS011;10938;44.794;-0.676;2023-02-28T16:26:02;4.32;;;3.33;;
21554;SDS011;10938;44.794;-0.676;2023-02-28T16:28:30;3.60;;;3.10;;
21554;SDS011;10938;44.794;-0.676;2023-02-28T16:31:02;5.68;;;3.50;;
21554;SDS011;10938;44.794;-0.676;2023-02-28T16:33:33;4.95;;;3.97;;
21554;SDS011;10938;44.794;-0.676;2023-02-28T16:35:59;7.45;;;4.72;;
21554;SDS011;10938;44.794;-0.676;2023-02-28T16:38:25;8.32;;;5.80;;
21554;SDS011;10938;44.794;-0.676;2023-02-28T16:40:51;7.35;;;4.68;;
21554;SDS011;10938;44.794;-0.676;2023-02-28T16:43:22;6.88;;;4.40;;
21554;SDS011;10938;44.794;-0.676;2023-02-28T16:45:53;5.00;;;3.72;;
21554;SDS011;10938;44.794;-0.676;2023-02-28T16:48:23;6.43;;;3.92;;
21554;SDS011;10938;44.794;-0.676;2023-02-28T16:50:50;7.18;;;4.93;;
21554;SDS011;10938;44.794;-0.676;2023-02-28T16:53:15;5.47;;;4.38;;
21554;SDS011;10938;44.794;-0.676;2023-02-28T16:55:41;5.60;;;3.63;;
21554;SDS011;10938;44.794;-0.676;2023-02-28T16:58:10;6.70;;;3.78;;
21554;SDS011;10938;44.794;-0.676;2023-02-28T17:00:39;5.85;;;3.80;;
21554;SDS011;10938;44.794;-0.676;2023-02-28T17:03:08;6.22;;;4.25;;
21554;SDS011;10938;44.794;-0.676;2023-02-28T17:05:43;4.65;;;3.45;;
21554;SDS011;10938;44.794;-0.676;2023-02-28T17:08:09;5.50;;;3.70;;
21554;SDS011;10938;44.794;-0.676;2023-02-28T17:10:36;5.03;;;3.78;;
21554;SDS011;10938;44.794;-0.676;2023-02-28T17:13:02;5.28;;;3.83;;
21554;SDS011;10938;44.794;-0.676;2023-02-28T17:15:27;4.20;;;3.22;;
21554;SDS011;10938;44.794;-0.676;2023-02-28T17:17:53;9.90;;;5.63;;
21554;SDS011;10938;44.794;-0.676;2023-02-28T17:20:19;6.32;;;4.22;;
21554;SDS011;10938;44.794;-0.676;2023-02-28T17:22:50;5.18;;;3.47;;
21554;SDS011;10938;44.794;-0.676;2023-02-28T17:25:16;5.68;;;4.30;;
21554;SDS011;10938;44.794;-0.676;2023-02-28T17:27:41;4.88;;;3.80;;
21554;SDS011;10938;44.794;-0.676;2023-02-28T17:30:13;4.75;;;3.28;;
21554;SDS011;10938;44.794;-0.676;2023-02-28T17:32:42;4.28;;;3.67;;
21554;SDS011;10938;44.794;-0.676;2023-02-28T17:35:08;4.55;;;3.20;;
21554;SDS011;10938;44.794;-0.676;2023-02-28T17:37:33;9.35;;;5.07;;
21554;SDS011;10938;44.794;-0.676;2023-02-28T17:39:59;6.00;;;4.50;;
21554;SDS011;10938;44.794;-0.676;2023-02-28T17:42:25;10.30;;;5.32;;
21554;SDS011;10938;44.794;-0.676;2023-02-28T17:44:50;9.95;;;5.43;;